createdAt,value
2023-03-29T00:01:04.000Z,0
2023-03-29T00:03:48.000Z,0
2023-03-29T00:06:28.000Z,0
2023-03-29T00:09:08.000Z,0
2023-03-29T00:11:49.000Z,0
2023-03-29T00:14:31.000Z,0
2023-03-29T00:17:13.000Z,0
2023-03-29T00:19:54.000Z,0
2023-03-29T00:22:40.000Z,0
2023-03-29T00:25:21.000Z,0
2023-03-29T00:28:01.000Z,0
2023-03-29T00:30:42.000Z,0
2023-03-29T00:33:26.000Z,0
2023-03-29T00:36:08.000Z,0
2023-03-29T00:38:50.000Z,0
2023-03-29T00:41:31.000Z,0
2023-03-29T00:44:10.000Z,0
2023-03-29T00:46:51.000Z,0
2023-03-29T00:49:32.000Z,0
2023-03-29T00:52:19.000Z,0
2023-03-29T00:55:00.000Z,0
2023-03-29T00:57:41.000Z,0
2023-03-29T01:00:23.000Z,0
2023-03-29T01:03:04.000Z,0
2023-03-29T01:05:45.000Z,0
2023-03-29T01:08:24.000Z,0
2023-03-29T01:11:06.000Z,0
2023-03-29T01:13:49.000Z,0
2023-03-29T01:16:33.000Z,0
2023-03-29T01:19:16.000Z,0
2023-03-29T01:21:58.000Z,0
2023-03-29T01:24:40.000Z,0
2023-03-29T01:27:23.000Z,0
2023-03-29T01:30:05.000Z,0
2023-03-29T01:32:48.000Z,0
2023-03-29T01:35:32.000Z,0
2023-03-29T01:38:14.000Z,0
2023-03-29T01:40:54.000Z,0
2023-03-29T01:43:37.000Z,0
2023-03-29T01:46:18.000Z,0
2023-03-29T01:49:00.000Z,0
2023-03-29T01:51:42.000Z,0
2023-03-29T01:54:24.000Z,0
2023-03-29T01:57:06.000Z,0
2023-03-29T01:59:47.000Z,0
2023-03-29T02:02:30.000Z,0
2023-03-29T02:05:11.000Z,0
2023-03-29T02:07:53.000Z,0
2023-03-29T02:10:35.000Z,0
2023-03-29T02:13:20.000Z,0
2023-03-29T02:16:02.000Z,0
2023-03-29T02:18:44.000Z,0
2023-03-29T02:21:25.000Z,0
2023-03-29T02:24:07.000Z,0
2023-03-29T02:26:48.000Z,0
2023-03-29T02:29:31.000Z,0
2023-03-29T02:32:12.000Z,0
2023-03-29T02:34:52.000Z,0
2023-03-29T02:37:32.000Z,0
2023-03-29T02:40:14.000Z,0
2023-03-29T02:42:55.000Z,0
2023-03-29T02:45:38.000Z,0
2023-03-29T02:48:21.000Z,0
2023-03-29T02:51:04.000Z,0
2023-03-29T02:53:46.000Z,0
2023-03-29T02:56:29.000Z,0
2023-03-29T02:59:12.000Z,0
2023-03-29T03:01:54.000Z,0
2023-03-29T03:04:35.000Z,0
2023-03-29T03:07:25.000Z,0
2023-03-29T03:10:07.000Z,0
2023-03-29T03:12:49.000Z,0
2023-03-29T03:15:30.000Z,0
2023-03-29T03:18:11.000Z,0
2023-03-29T03:20:53.000Z,0
2023-03-29T03:23:33.000Z,0
2023-03-29T03:26:11.000Z,0
2023-03-29T03:28:51.000Z,0
2023-03-29T03:31:31.000Z,0
2023-03-29T03:34:15.000Z,0
2023-03-29T03:36:57.000Z,0
2023-03-29T03:39:40.000Z,0
2023-03-29T03:42:23.000Z,0
2023-03-29T03:45:06.000Z,0
2023-03-29T03:47:49.000Z,0
2023-03-29T03:50:32.000Z,0
2023-03-29T03:53:14.000Z,0
2023-03-29T03:55:56.000Z,0
2023-03-29T03:58:38.000Z,0
2023-03-29T04:01:22.000Z,0
2023-03-29T04:04:07.000Z,0
2023-03-29T04:06:45.000Z,0
2023-03-29T04:09:29.000Z,0
2023-03-29T04:12:12.000Z,0
2023-03-29T04:14:55.000Z,1
2023-03-29T04:17:38.000Z,1
2023-03-29T04:20:20.000Z,2
2023-03-29T04:23:01.000Z,2
2023-03-29T04:25:40.000Z,3
2023-03-29T04:28:23.000Z,7
2023-03-29T04:31:04.000Z,10
2023-03-29T04:33:46.000Z,14
2023-03-29T04:36:28.000Z,21
2023-03-29T04:39:11.000Z,28
2023-03-29T04:41:52.000Z,43
2023-03-29T04:44:32.000Z,61
2023-03-29T04:47:14.000Z,83
2023-03-29T04:49:56.000Z,127
2023-03-29T04:52:39.000Z,194
2023-03-29T04:55:27.000Z,268
2023-03-29T04:58:09.000Z,358
2023-03-29T05:00:50.000Z,456
2023-03-29T05:03:33.000Z,505
2023-03-29T05:06:16.000Z,591
2023-03-29T05:08:56.000Z,745
2023-03-29T05:11:39.000Z,861
2023-03-29T05:14:22.000Z,885
2023-03-29T05:17:05.000Z,934
2023-03-29T05:19:45.000Z,999
2023-03-29T05:22:26.000Z,1188
2023-03-29T05:25:07.000Z,1232
2023-03-29T05:27:48.000Z,1225
2023-03-29T05:30:31.000Z,1217
2023-03-29T05:33:12.000Z,1292
2023-03-29T05:35:56.000Z,1586
2023-03-29T05:38:37.000Z,2219
2023-03-29T05:41:20.000Z,2362
2023-03-29T05:44:00.000Z,2225
2023-03-29T05:46:41.000Z,1982
2023-03-29T05:49:21.000Z,1951
2023-03-29T05:52:03.000Z,1882
2023-03-29T05:54:48.000Z,1754
2023-03-29T05:57:30.000Z,2076
2023-03-29T06:00:09.000Z,2284
2023-03-29T06:02:48.000Z,2190
2023-03-29T06:05:27.000Z,2423
2023-03-29T06:08:06.000Z,3072
2023-03-29T06:10:55.000Z,3909
2023-03-29T06:13:35.000Z,4576
2023-03-29T06:16:17.000Z,5117
2023-03-29T06:18:58.000Z,6439
2023-03-29T06:21:39.000Z,6453
2023-03-29T06:24:22.000Z,5585
2023-03-29T06:27:02.000Z,5420
2023-03-29T06:29:45.000Z,4762
2023-03-29T06:32:23.000Z,4338
2023-03-29T06:35:03.000Z,3685
2023-03-29T06:37:45.000Z,3188
2023-03-29T06:40:23.000Z,2573
2023-03-29T06:43:07.000Z,2401
2023-03-29T06:45:51.000Z,5106
2023-03-29T06:48:31.000Z,5612
2023-03-29T06:51:11.000Z,6337
2023-03-29T06:53:53.000Z,6351
2023-03-29T06:56:34.000Z,6369
2023-03-29T06:59:16.000Z,6455
2023-03-29T07:01:57.000Z,6063
2023-03-29T07:04:39.000Z,6465
2023-03-29T07:07:22.000Z,6982
2023-03-29T07:10:06.000Z,7499
2023-03-29T07:12:47.000Z,8547
2023-03-29T07:15:31.000Z,9534
2023-03-29T07:18:14.000Z,9510
2023-03-29T07:20:55.000Z,10004
2023-03-29T07:23:39.000Z,9880
2023-03-29T07:26:20.000Z,9152
2023-03-29T07:29:00.000Z,10968
2023-03-29T07:31:41.000Z,12508
2023-03-29T07:34:24.000Z,13658
2023-03-29T07:37:07.000Z,15614
2023-03-29T07:39:49.000Z,16856
2023-03-29T07:42:31.000Z,15481
2023-03-29T07:45:13.000Z,14977
2023-03-29T07:47:54.000Z,15263
2023-03-29T07:50:37.000Z,15287
2023-03-29T07:53:19.000Z,14286
2023-03-29T07:56:04.000Z,15266
2023-03-29T07:58:41.000Z,15759
2023-03-29T08:01:23.000Z,16840
2023-03-29T08:04:07.000Z,16736
2023-03-29T08:06:54.000Z,16872
2023-03-29T08:09:37.000Z,18056
2023-03-29T08:12:20.000Z,18600
2023-03-29T08:15:03.000Z,18248
2023-03-29T08:17:49.000Z,17544
2023-03-29T08:20:31.000Z,17160
2023-03-29T08:23:13.000Z,16976
2023-03-29T08:25:57.000Z,17744
2023-03-29T08:28:49.000Z,19392
2023-03-29T08:31:34.000Z,19784
2023-03-29T08:34:22.000Z,20736
2023-03-29T08:37:06.000Z,20712
2023-03-29T08:39:47.000Z,21104
2023-03-29T08:42:28.000Z,21560
2023-03-29T08:45:08.000Z,21992
2023-03-29T08:47:58.000Z,21848
2023-03-29T08:50:40.000Z,21032
2023-03-29T08:53:30.000Z,20080
2023-03-29T08:56:12.000Z,21568
2023-03-29T08:58:50.000Z,24576
2023-03-29T09:01:33.000Z,24320
2023-03-29T09:04:15.000Z,22888
2023-03-29T09:06:57.000Z,22768
2023-03-29T09:09:40.000Z,23056
2023-03-29T09:12:23.000Z,24432
2023-03-29T09:15:05.000Z,23704
2023-03-29T09:17:47.000Z,21152
2023-03-29T09:20:29.000Z,20464
2023-03-29T09:23:09.000Z,21232
2023-03-29T09:25:55.000Z,22672
2023-03-29T09:28:37.000Z,23152
2023-03-29T09:31:20.000Z,23464
2023-03-29T09:34:03.000Z,21968
2023-03-29T09:36:48.000Z,22016
2023-03-29T09:39:30.000Z,23360
2023-03-29T09:42:12.000Z,23864
2023-03-29T09:44:55.000Z,24744
2023-03-29T09:47:38.000Z,24792
2023-03-29T09:50:20.000Z,24664
2023-03-29T09:53:02.000Z,24904
2023-03-29T09:55:45.000Z,25456
2023-03-29T09:58:32.000Z,25808
2023-03-29T10:01:14.000Z,27688
2023-03-29T10:03:56.000Z,29016
2023-03-29T10:06:41.000Z,29696
2023-03-29T10:09:24.000Z,27328
2023-03-29T10:12:07.000Z,28592
2023-03-29T10:14:49.000Z,29096
2023-03-29T10:17:32.000Z,34160
2023-03-29T10:20:22.000Z,38520
2023-03-29T10:23:04.000Z,38784
2023-03-29T10:25:51.000Z,42408
2023-03-29T10:28:40.000Z,45888
2023-03-29T10:31:21.000Z,39752
2023-03-29T10:34:04.000Z,36352
2023-03-29T10:36:46.000Z,43144
2023-03-29T10:39:29.000Z,43832
2023-03-29T10:42:10.000Z,39616
2023-03-29T10:44:52.000Z,40232
2023-03-29T10:47:38.000Z,46040
2023-03-29T10:50:20.000Z,42896
2023-03-29T10:53:03.000Z,44168
2023-03-29T10:55:47.000Z,39664
2023-03-29T10:58:30.000Z,34792
2023-03-29T11:01:14.000Z,32360
2023-03-29T11:03:56.000Z,33400
2023-03-29T11:06:41.000Z,35496
2023-03-29T11:09:23.000Z,33984
2023-03-29T11:12:05.000Z,35296
2023-03-29T11:14:47.000Z,34376
2023-03-29T11:17:30.000Z,33984
2023-03-29T11:20:08.000Z,29808
2023-03-29T11:22:48.000Z,29576
2023-03-29T11:25:28.000Z,32304
2023-03-29T11:28:08.000Z,31768
2023-03-29T11:30:50.000Z,33616
2023-03-29T11:33:31.000Z,33112
2023-03-29T11:36:14.000Z,31888
2023-03-29T11:38:58.000Z,31632
2023-03-29T11:41:42.000Z,35504
2023-03-29T11:44:23.000Z,35448
2023-03-29T11:47:08.000Z,40752
2023-03-29T11:49:51.000Z,42584
2023-03-29T11:52:33.000Z,42632
2023-03-29T11:55:17.000Z,33256
2023-03-29T11:57:58.000Z,28168
2023-03-29T12:00:41.000Z,28832
2023-03-29T12:03:26.000Z,33232
2023-03-29T12:06:08.000Z,41800
2023-03-29T12:08:50.000Z,65535
2023-03-29T12:11:38.000Z,52592
2023-03-29T12:14:21.000Z,52976
2023-03-29T12:17:05.000Z,64816
2023-03-29T12:19:47.000Z,43472
2023-03-29T12:22:30.000Z,65535
2023-03-29T12:25:12.000Z,65535
2023-03-29T12:27:53.000Z,51952
2023-03-29T12:30:32.000Z,63384
2023-03-29T12:33:11.000Z,56544
2023-03-29T12:35:55.000Z,45744
2023-03-29T12:38:37.000Z,64816
2023-03-29T12:41:18.000Z,65535
2023-03-29T12:44:00.000Z,51384
2023-03-29T12:46:42.000Z,39488
2023-03-29T12:49:24.000Z,48112
2023-03-29T12:52:07.000Z,44800
2023-03-29T12:54:49.000Z,46456
2023-03-29T12:57:30.000Z,37984
2023-03-29T13:00:15.000Z,49784
2023-03-29T13:02:57.000Z,52720
2023-03-29T13:05:46.000Z,40248
2023-03-29T13:08:30.000Z,37696
2023-03-29T13:11:10.000Z,36040
2023-03-29T13:13:51.000Z,35768
2023-03-29T13:16:33.000Z,33832
2023-03-29T13:19:20.000Z,30224
2023-03-29T13:22:01.000Z,28088
2023-03-29T13:24:43.000Z,29480
2023-03-29T13:27:28.000Z,29632
2023-03-29T13:30:10.000Z,28208
2023-03-29T13:32:52.000Z,27960
2023-03-29T13:35:35.000Z,25920
2023-03-29T13:38:27.000Z,27080
2023-03-29T13:41:22.000Z,29576
2023-03-29T13:44:05.000Z,29096
2023-03-29T13:46:53.000Z,29016
2023-03-29T13:49:35.000Z,30064
2023-03-29T13:52:19.000Z,34216
2023-03-29T13:55:04.000Z,39088
2023-03-29T13:57:49.000Z,36904
2023-03-29T14:00:32.000Z,36408
2023-03-29T14:03:17.000Z,34096
2023-03-29T14:06:01.000Z,30888
2023-03-29T14:08:46.000Z,28176
2023-03-29T14:11:37.000Z,26528
2023-03-29T14:14:20.000Z,27208
2023-03-29T14:17:07.000Z,28384
2023-03-29T14:19:50.000Z,27968
2023-03-29T14:22:33.000Z,29080
2023-03-29T14:25:16.000Z,28808
2023-03-29T14:28:05.000Z,29056
2023-03-29T14:30:50.000Z,31216
2023-03-29T14:33:35.000Z,28616
2023-03-29T14:36:20.000Z,21800
2023-03-29T14:39:15.000Z,21120
2023-03-29T14:42:00.000Z,19824
2023-03-29T14:44:45.000Z,20776
2023-03-29T14:47:27.000Z,22384
2023-03-29T14:50:09.000Z,26632
2023-03-29T14:52:52.000Z,22336
2023-03-29T14:55:36.000Z,20376
2023-03-29T14:58:21.000Z,19864
2023-03-29T15:01:07.000Z,18320
2023-03-29T15:03:55.000Z,18264
2023-03-29T15:06:51.000Z,19144
2023-03-29T15:09:33.000Z,18640
2023-03-29T15:12:17.000Z,18240
2023-03-29T15:15:01.000Z,16176
2023-03-29T15:17:48.000Z,14580
2023-03-29T15:20:32.000Z,14196
2023-03-29T15:23:16.000Z,16336
2023-03-29T15:26:04.000Z,17184
2023-03-29T15:28:46.000Z,15984
2023-03-29T15:31:33.000Z,13839
2023-03-29T15:34:16.000Z,14138
2023-03-29T15:37:00.000Z,13956
2023-03-29T15:39:46.000Z,16256
2023-03-29T15:42:30.000Z,18640
2023-03-29T15:45:14.000Z,16048
2023-03-29T15:48:25.000Z,13062
2023-03-29T15:51:14.000Z,12966
2023-03-29T15:54:03.000Z,9878
2023-03-29T15:57:26.000Z,10251
2023-03-29T16:00:09.000Z,11337
2023-03-29T16:02:52.000Z,9122
2023-03-29T16:05:34.000Z,6251
2023-03-29T16:08:18.000Z,4903
2023-03-29T16:11:13.000Z,3894
2023-03-29T16:13:57.000Z,3378
2023-03-29T16:16:45.000Z,2169
2023-03-29T16:19:30.000Z,2130
2023-03-29T16:22:15.000Z,2282
2023-03-29T16:25:00.000Z,1455
2023-03-29T16:27:42.000Z,1241
2023-03-29T16:30:26.000Z,1136
2023-03-29T16:33:09.000Z,1249
2023-03-29T16:36:00.000Z,1247
2023-03-29T16:38:44.000Z,1950
2023-03-29T16:41:28.000Z,2792
2023-03-29T16:44:15.000Z,3439
2023-03-29T16:47:07.000Z,3241
2023-03-29T16:49:51.000Z,3234
2023-03-29T16:52:37.000Z,2770
2023-03-29T16:55:26.000Z,2553
2023-03-29T16:58:18.000Z,2305
2023-03-29T17:01:09.000Z,1955
2023-03-29T17:03:51.000Z,1733
2023-03-29T17:06:35.000Z,1549
2023-03-29T17:09:17.000Z,1377
2023-03-29T17:12:06.000Z,1220
2023-03-29T17:14:58.000Z,1051
2023-03-29T17:17:47.000Z,863
2023-03-29T17:20:31.000Z,739
2023-03-29T17:23:20.000Z,628
2023-03-29T17:26:05.000Z,547
2023-03-29T17:28:48.000Z,473
2023-03-29T17:31:33.000Z,400
2023-03-29T17:34:20.000Z,332
2023-03-29T17:37:04.000Z,274
2023-03-29T17:39:51.000Z,213
2023-03-29T17:42:34.000Z,162
2023-03-29T17:45:18.000Z,117
2023-03-29T17:48:00.000Z,81
2023-03-29T17:50:47.000Z,54
2023-03-29T17:53:30.000Z,34
2023-03-29T17:56:27.000Z,21
2023-03-29T17:59:15.000Z,12
2023-03-29T18:02:07.000Z,7
2023-03-29T18:04:51.000Z,4
2023-03-29T18:07:48.000Z,2
2023-03-29T18:10:39.000Z,2
2023-03-29T18:13:24.000Z,1
2023-03-29T18:16:08.000Z,1
2023-03-29T18:19:05.000Z,0
2023-03-29T18:21:49.000Z,0
2023-03-29T18:24:35.000Z,0
2023-03-29T18:27:18.000Z,0
2023-03-29T18:30:01.000Z,0
2023-03-29T18:32:52.000Z,0
2023-03-29T18:35:35.000Z,0
2023-03-29T18:38:17.000Z,0
2023-03-29T18:41:07.000Z,0
2023-03-29T18:43:49.000Z,0
2023-03-29T18:46:32.000Z,0
2023-03-29T18:49:22.000Z,0
2023-03-29T18:52:05.000Z,0
2023-03-29T18:54:48.000Z,0
2023-03-29T18:57:31.000Z,0
2023-03-29T19:00:12.000Z,0
2023-03-29T19:02:55.000Z,0
2023-03-29T19:05:43.000Z,0
2023-03-29T19:08:26.000Z,0
2023-03-29T19:11:11.000Z,0
2023-03-29T19:13:53.000Z,0
2023-03-29T19:16:58.000Z,0
2023-03-29T19:20:21.000Z,0
2023-03-29T19:23:10.000Z,0
2023-03-29T19:25:54.000Z,0
2023-03-29T19:28:42.000Z,0
2023-03-29T19:31:30.000Z,0
2023-03-29T19:34:13.000Z,0
2023-03-29T19:36:59.000Z,0
2023-03-29T19:39:42.000Z,0
2023-03-29T19:42:26.000Z,0
2023-03-29T19:45:36.000Z,0
2023-03-29T19:48:20.000Z,0
2023-03-29T19:51:05.000Z,0
2023-03-29T19:53:52.000Z,0
2023-03-29T19:56:34.000Z,0
2023-03-29T19:59:25.000Z,0
2023-03-29T20:02:08.000Z,0
2023-03-29T20:04:52.000Z,0
2023-03-29T20:07:37.000Z,0
2023-03-29T20:10:23.000Z,0
2023-03-29T20:13:08.000Z,0
2023-03-29T20:15:50.000Z,0
2023-03-29T20:18:36.000Z,0
2023-03-29T20:21:20.000Z,0
2023-03-29T20:24:05.000Z,0
2023-03-29T20:26:49.000Z,0
2023-03-29T20:29:33.000Z,0
2023-03-29T20:32:23.000Z,0
2023-03-29T20:35:07.000Z,0
2023-03-29T20:37:50.000Z,0
2023-03-29T20:40:34.000Z,0
2023-03-29T20:43:17.000Z,0
2023-03-29T20:45:59.000Z,0
2023-03-29T20:48:44.000Z,0
2023-03-29T20:51:25.000Z,0
2023-03-29T20:54:12.000Z,0
2023-03-29T20:56:58.000Z,0
2023-03-29T20:59:43.000Z,0
2023-03-29T21:02:28.000Z,0
2023-03-29T21:05:19.000Z,0
2023-03-29T21:08:06.000Z,0
2023-03-29T21:10:52.000Z,0
2023-03-29T21:13:38.000Z,0
2023-03-29T21:16:26.000Z,0
2023-03-29T21:19:09.000Z,0
2023-03-29T21:21:52.000Z,0
2023-03-29T21:24:44.000Z,0
2023-03-29T21:27:29.000Z,0
2023-03-29T21:30:15.000Z,0
2023-03-29T21:32:58.000Z,0
2023-03-29T21:35:41.000Z,0
2023-03-29T21:38:25.000Z,0
2023-03-29T21:41:14.000Z,0
2023-03-29T21:44:00.000Z,0
2023-03-29T21:46:45.000Z,0
2023-03-29T21:49:31.000Z,0
2023-03-29T21:52:17.000Z,0
2023-03-29T21:55:01.000Z,0
2023-03-29T21:57:45.000Z,0
2023-03-29T22:00:29.000Z,0
2023-03-29T22:03:12.000Z,0
2023-03-29T22:05:58.000Z,0
2023-03-29T22:08:39.000Z,0
2023-03-29T22:11:24.000Z,0
2023-03-29T22:14:09.000Z,0
2023-03-29T22:16:51.000Z,0
2023-03-29T22:19:41.000Z,0
2023-03-29T22:22:26.000Z,0
2023-03-29T22:25:15.000Z,0
2023-03-29T22:27:59.000Z,0
2023-03-29T22:30:43.000Z,0
2023-03-29T22:33:28.000Z,0
2023-03-29T22:36:09.000Z,0
2023-03-29T22:38:53.000Z,0
2023-03-29T22:41:36.000Z,0
2023-03-29T22:44:24.000Z,0
2023-03-29T22:47:08.000Z,0
2023-03-29T22:49:52.000Z,0
2023-03-29T22:52:35.000Z,0
2023-03-29T22:55:25.000Z,0
2023-03-29T22:58:09.000Z,0
2023-03-29T23:00:53.000Z,0
2023-03-29T23:03:36.000Z,0
2023-03-29T23:06:21.000Z,0
2023-03-29T23:09:05.000Z,0
2023-03-29T23:11:50.000Z,0
2023-03-29T23:14:32.000Z,0
2023-03-29T23:17:17.000Z,0
2023-03-29T23:19:59.000Z,0
2023-03-29T23:22:45.000Z,0
2023-03-29T23:25:31.000Z,0
2023-03-29T23:28:16.000Z,0
2023-03-29T23:31:02.000Z,0
2023-03-29T23:33:44.000Z,0
2023-03-29T23:36:30.000Z,0
2023-03-29T23:39:16.000Z,0
2023-03-29T23:42:06.000Z,0
2023-03-29T23:44:51.000Z,0
2023-03-29T23:47:40.000Z,0
2023-03-29T23:50:23.000Z,0
2023-03-29T23:53:06.000Z,0
2023-03-29T23:55:50.000Z,0
2023-03-29T23:58:35.000Z,0
